createdAt,value
2024-04-08T00:02:07.857Z,96467.72
2024-04-08T00:04:37.163Z,96460.03
2024-04-08T00:07:04.274Z,96454.59
2024-04-08T00:09:36.236Z,96457.59
2024-04-08T00:12:03.147Z,96454.16
2024-04-08T00:14:32.530Z,96443.81
2024-04-08T00:16:59.298Z,96441.13
2024-04-08T00:19:28.616Z,96438.09
2024-04-08T00:21:55.355Z,96446.19
2024-04-08T00:24:24.762Z,96444.28
2024-04-08T00:26:54.043Z,96448.63
2024-04-08T00:29:23.360Z,96450.06
2024-04-08T00:31:50.087Z,96448.38
2024-04-08T00:34:19.630Z,96440.94
2024-04-08T00:36:46.331Z,96434.53
2024-04-08T00:39:18.430Z,96441.41
2024-04-08T00:41:46.591Z,96435.88
2024-04-08T00:44:19.054Z,96433.38
2024-04-08T00:46:47.673Z,96424.91
2024-04-08T00:49:17.669Z,96426.34
2024-04-08T00:51:45.877Z,96419.22
2024-04-08T00:54:15.571Z,96417.44
2024-04-08T00:56:44.612Z,96417.31
2024-04-08T00:59:18.004Z,96422.03
2024-04-08T01:01:47.436Z,96421.59
2024-04-08T01:04:16.802Z,96427.38
2024-04-08T01:06:43.526Z,96426.13
2024-04-08T01:09:13.057Z,96434.09
2024-04-08T01:11:41.862Z,96432.63
2024-04-08T01:14:11.328Z,96435.88
2024-04-08T01:16:38.015Z,96431.34
2024-04-08T01:19:09.914Z,96424.88
2024-04-08T01:21:36.704Z,96420.28
2024-04-08T01:24:09.984Z,96430.97
2024-04-08T01:26:36.909Z,96427.44
2024-04-08T01:29:06.302Z,96424.41
2024-04-08T01:31:33.083Z,96419.03
2024-04-08T01:34:02.569Z,96412.03
2024-04-08T01:36:31.055Z,96403.41
2024-04-08T01:39:00.500Z,96409.19
2024-04-08T01:41:29.819Z,96410.19
2024-04-08T01:43:59.150Z,96405.81
2024-04-08T01:46:25.880Z,96397.81
2024-04-08T01:48:55.289Z,96401.63
2024-04-08T01:51:22.085Z,96397.84
2024-04-08T01:53:51.523Z,96398.97
2024-04-08T01:56:18.436Z,96394.53
2024-04-08T01:58:51.429Z,96398.88
2024-04-08T02:01:18.212Z,96403.06
2024-04-08T02:03:47.516Z,96409.88
2024-04-08T02:06:14.344Z,96406.09
2024-04-08T02:08:43.776Z,96401.19
2024-04-08T02:11:10.558Z,96409.41
2024-04-08T02:13:39.866Z,96408.75
2024-04-08T02:16:10.186Z,96400.94
2024-04-08T02:18:39.818Z,96397.19
2024-04-08T02:21:09.809Z,96405.19
2024-04-08T02:23:39.142Z,96419.75
2024-04-08T02:26:05.970Z,96430.06
2024-04-08T02:28:35.495Z,96442.31
2024-04-08T02:31:02.796Z,96444.28
2024-04-08T02:33:35.096Z,96420.41
2024-04-08T02:36:03.349Z,96429.22
2024-04-08T02:38:32.789Z,96444.78
2024-04-08T02:40:59.949Z,96453.72
2024-04-08T02:43:29.635Z,96443.78
2024-04-08T02:45:56.382Z,96458.16
2024-04-08T02:48:25.895Z,96470.66
2024-04-08T02:50:55.227Z,96466.88
2024-04-08T02:53:25.298Z,96467.38
2024-04-08T02:56:00.304Z,96453.13
2024-04-08T02:58:29.703Z,96462.38
2024-04-08T03:00:56.489Z,96469.72
2024-04-08T03:03:26.107Z,96455.63
2024-04-08T03:05:55.598Z,96458.50
2024-04-08T03:08:24.953Z,96460.53
2024-04-08T03:10:58.173Z,96464.72
2024-04-08T03:13:27.482Z,96473.84
2024-04-08T03:15:54.617Z,96467.19
2024-04-08T03:18:24.137Z,96467.84
2024-04-08T03:21:02.467Z,96459.41
2024-04-08T03:23:31.810Z,96472.28
2024-04-08T03:25:58.994Z,96470.06
2024-04-08T03:28:28.742Z,96459.81
2024-04-08T03:30:55.889Z,96449.25
2024-04-08T03:33:26.781Z,96449.75
2024-04-08T03:35:54.148Z,96455.53
2024-04-08T03:38:26.133Z,96446.22
2024-04-08T03:41:01.646Z,96477.03
2024-04-08T03:43:30.980Z,96483.63
2024-04-08T03:46:00.961Z,96467.75
2024-04-08T03:48:30.790Z,96468.00
2024-04-08T03:50:57.551Z,96461.06
2024-04-08T03:53:29.525Z,96465.75
2024-04-08T03:56:04.571Z,96469.53
2024-04-08T03:58:33.941Z,96457.94
2024-04-08T04:01:01.205Z,96453.19
2024-04-08T04:03:30.690Z,96450.31
2024-04-08T04:05:57.466Z,96451.41
2024-04-08T04:08:29.850Z,96441.41
2024-04-08T04:10:57.131Z,96459.56
2024-04-08T04:13:26.616Z,96453.13
2024-04-08T04:15:54.762Z,96468.88
2024-04-08T04:18:24.098Z,96472.13
2024-04-08T04:20:50.902Z,96479.28
2024-04-08T04:23:20.318Z,96476.97
2024-04-08T04:25:53.190Z,96479.09
2024-04-08T04:28:22.660Z,96477.13
2024-04-08T04:30:56.104Z,96480.97
2024-04-08T04:33:26.025Z,96487.59
2024-04-08T04:35:54.271Z,96487.50
2024-04-08T04:38:23.688Z,96486.81
2024-04-08T04:41:02.784Z,96494.13
2024-04-08T04:43:32.490Z,96485.56
2024-04-08T04:46:00.046Z,96489.19
2024-04-08T04:48:29.996Z,96494.50
2024-04-08T04:50:56.793Z,96491.38
2024-04-08T04:53:26.164Z,96483.72
2024-04-08T04:55:53.864Z,96493.91
2024-04-08T04:58:26.420Z,96495.81
2024-04-08T05:00:54.153Z,96496.72
2024-04-08T05:03:23.613Z,96494.06
2024-04-08T05:05:53.965Z,96498.47
2024-04-08T05:08:23.487Z,96494.38
2024-04-08T05:10:50.589Z,96495.13
2024-04-08T05:13:20.331Z,96501.59
2024-04-08T05:16:00.198Z,96499.69
2024-04-08T05:18:29.922Z,96499.56
2024-04-08T05:20:57.107Z,96501.66
2024-04-08T05:23:27.205Z,96498.09
2024-04-08T05:25:54.570Z,96483.81
2024-04-08T05:28:24.572Z,96488.13
2024-04-08T05:30:51.830Z,96479.50
2024-04-08T05:33:24.173Z,96491.38
2024-04-08T05:35:50.980Z,96495.53
2024-04-08T05:38:20.347Z,96494.91
2024-04-08T05:40:47.382Z,96496.38
2024-04-08T05:43:17.966Z,96493.28
2024-04-08T05:45:44.702Z,96481.97
2024-04-08T05:48:15.921Z,96473.81
2024-04-08T05:50:47.291Z,96474.75
2024-04-08T05:53:16.672Z,96473.97
2024-04-08T05:55:44.258Z,96471.00
2024-04-08T05:58:13.674Z,96477.34
2024-04-08T06:00:40.775Z,96479.28
2024-04-08T06:03:10.397Z,96467.84
2024-04-08T06:05:41.881Z,96468.31
2024-04-08T06:08:14.529Z,96468.78
2024-04-08T06:10:46.230Z,96468.50
2024-04-08T06:13:15.689Z,96465.53
2024-04-08T06:15:42.413Z,96466.75
2024-04-08T06:18:11.947Z,96466.69
2024-04-08T06:20:38.781Z,96474.97
2024-04-08T06:23:08.178Z,96474.66
2024-04-08T06:25:37.534Z,96465.59
2024-04-08T06:28:07.129Z,96474.13
2024-04-08T06:30:34.101Z,96471.41
2024-04-08T06:33:03.762Z,96474.06
2024-04-08T06:35:30.547Z,96464.41
2024-04-08T06:37:59.845Z,96477.34
2024-04-08T06:40:27.220Z,96485.53
2024-04-08T06:42:59.148Z,96480.28
2024-04-08T06:45:25.880Z,96470.66
2024-04-08T06:47:55.399Z,96476.28
2024-04-08T06:50:22.716Z,96473.41
2024-04-08T06:52:54.414Z,96473.50
2024-04-08T06:55:21.430Z,96473.00
2024-04-08T06:57:50.730Z,96468.31
2024-04-08T07:00:20.837Z,96460.94
2024-04-08T07:02:50.288Z,96463.69
2024-04-08T07:05:17.450Z,96459.75
2024-04-08T07:07:46.795Z,96453.50
2024-04-08T07:10:13.665Z,96453.47
2024-04-08T07:12:42.970Z,96447.22
2024-04-08T07:15:09.944Z,96446.50
2024-04-08T07:17:42.016Z,96449.75
2024-04-08T07:20:11.128Z,96441.09
2024-04-08T07:22:40.548Z,96431.41
2024-04-08T07:25:07.518Z,96418.97
2024-04-08T07:27:36.916Z,96424.94
2024-04-08T07:30:05.040Z,96429.25
2024-04-08T07:32:34.557Z,96425.41
2024-04-08T07:35:05.724Z,96427.97
2024-04-08T07:37:35.026Z,96433.72
2024-04-08T07:40:02.020Z,96443.75
2024-04-08T07:42:31.425Z,96438.38
2024-04-08T07:44:58.169Z,96425.72
2024-04-08T07:47:27.579Z,96418.56
2024-04-08T07:49:57.269Z,96425.22
2024-04-08T07:52:29.797Z,96434.94
2024-04-08T07:54:56.583Z,96434.25
2024-04-08T07:57:25.935Z,96437.44
2024-04-08T07:59:53.188Z,96444.94
2024-04-08T08:02:24.753Z,96440.28
2024-04-08T08:04:51.524Z,96431.91
2024-04-08T08:07:21.039Z,96438.38
2024-04-08T08:09:53.961Z,96436.13
2024-04-08T08:12:23.391Z,96432.53
2024-04-08T08:14:54.189Z,96426.25
2024-04-08T08:17:28.746Z,96425.72
2024-04-08T08:19:59.279Z,96416.31
2024-04-08T08:22:28.724Z,96416.41
2024-04-08T08:25:00.647Z,96419.56
2024-04-08T08:27:30.126Z,96411.59
2024-04-08T08:29:59.477Z,96422.88
2024-04-08T08:32:28.967Z,96426.34
2024-04-08T08:34:58.307Z,96415.34
2024-04-08T08:37:25.106Z,96414.75
2024-04-08T08:39:54.396Z,96425.81
2024-04-08T08:42:28.030Z,96419.84
2024-04-08T08:45:00.662Z,96414.75
2024-04-08T08:47:27.596Z,96418.53
2024-04-08T08:49:58.581Z,96423.06
2024-04-08T08:52:25.909Z,96414.75
2024-04-08T08:54:56.139Z,96415.38
2024-04-08T08:57:26.439Z,96403.94
2024-04-08T08:59:57.594Z,96395.94
2024-04-08T09:02:27.077Z,96392.94
2024-04-08T09:04:56.540Z,96401.41
2024-04-08T09:07:23.624Z,96397.19
2024-04-08T09:09:57.208Z,96387.03
2024-04-08T09:12:28.696Z,96387.63
2024-04-08T09:14:58.647Z,96390.06
2024-04-08T09:17:25.512Z,96386.13
2024-04-08T09:19:54.983Z,96380.34
2024-04-08T09:22:21.746Z,96377.66
2024-04-08T09:24:51.494Z,96374.75
2024-04-08T09:27:18.362Z,96383.56
2024-04-08T09:29:50.514Z,96384.41
2024-04-08T09:32:17.368Z,96377.16
2024-04-08T09:34:46.731Z,96368.47
2024-04-08T09:37:15.072Z,96368.50
2024-04-08T09:39:44.696Z,96368.66
2024-04-08T09:42:14.334Z,96366.84
2024-04-08T09:44:45.959Z,96351.16
2024-04-08T09:47:16.958Z,96351.91
2024-04-08T09:49:50.000Z,96358.81
2024-04-08T09:52:17.770Z,96360.38
2024-04-08T09:54:47.166Z,96353.44
2024-04-08T09:57:17.245Z,96353.47
2024-04-08T09:59:51.031Z,96355.75
2024-04-08T10:02:28.476Z,96350.38
2024-04-08T10:04:59.028Z,96348.34
2024-04-08T10:07:26.770Z,96340.25
2024-04-08T10:09:57.070Z,96343.78
2024-04-08T10:12:31.342Z,96343.44
2024-04-08T10:15:11.406Z,96341.91
2024-04-08T10:17:42.044Z,96338.03
2024-04-08T10:20:13.975Z,96327.25
2024-04-08T10:22:40.996Z,96324.94
2024-04-08T10:25:34.387Z,96322.88
2024-04-08T10:28:05.025Z,96319.69
2024-04-08T10:30:35.506Z,96316.50
2024-04-08T10:33:05.647Z,96307.41
2024-04-08T10:35:34.985Z,96311.13
2024-04-08T10:38:01.795Z,96305.56
2024-04-08T10:40:31.518Z,96300.25
2024-04-08T10:42:59.202Z,96297.03
2024-04-08T10:45:29.036Z,96293.69
2024-04-08T10:48:01.557Z,96298.03
2024-04-08T10:50:34.533Z,96295.44
2024-04-08T10:53:02.803Z,96287.94
2024-04-08T10:55:32.794Z,96276.31
2024-04-08T10:58:00.151Z,96274.63
2024-04-08T11:00:30.533Z,96271.84
2024-04-08T11:02:57.607Z,96273.78
2024-04-08T11:05:27.250Z,96273.06
2024-04-08T11:07:59.608Z,96272.81
2024-04-08T11:10:31.872Z,96269.53
2024-04-08T11:12:58.654Z,96269.69
2024-04-08T11:15:31.114Z,96278.53
2024-04-08T11:17:59.092Z,96274.75
2024-04-08T11:20:30.737Z,96262.72
2024-04-08T11:23:03.177Z,96262.66
2024-04-08T11:25:32.687Z,96251.63
2024-04-08T11:28:00.424Z,96255.72
2024-04-08T11:30:35.896Z,96254.22
2024-04-08T11:33:04.404Z,96249.00
2024-04-08T11:35:34.214Z,96256.31
2024-04-08T11:38:13.101Z,96250.53
2024-04-08T11:40:53.404Z,96245.38
2024-04-08T11:43:20.255Z,96263.00
2024-04-08T11:45:50.063Z,96262.81
2024-04-08T11:48:18.249Z,96273.47
2024-04-08T11:50:47.716Z,96263.94
2024-04-08T11:53:17.591Z,96283.91
2024-04-08T11:55:47.131Z,96289.28
2024-04-08T11:58:14.074Z,96284.63
2024-04-08T12:00:43.550Z,96292.69
2024-04-08T12:03:10.366Z,96293.41
2024-04-08T12:05:39.805Z,96294.09
2024-04-08T12:08:08.669Z,96296.59
2024-04-08T12:10:40.755Z,96306.19
2024-04-08T12:13:16.180Z,96310.91
2024-04-08T12:15:45.591Z,96309.34
2024-04-08T12:18:12.323Z,96314.75
2024-04-08T12:20:42.064Z,96309.66
2024-04-08T12:23:12.727Z,96313.56
2024-04-08T12:25:44.908Z,96296.78
2024-04-08T12:28:11.787Z,96295.41
2024-04-08T12:30:42.990Z,96298.19
2024-04-08T12:33:09.856Z,96292.53
2024-04-08T12:35:39.199Z,96287.63
2024-04-08T12:38:10.122Z,96293.84
2024-04-08T12:40:39.838Z,96303.53
2024-04-08T12:43:09.279Z,96297.44
2024-04-08T12:45:38.802Z,96294.59
2024-04-08T12:48:07.278Z,96306.66
2024-04-08T12:50:36.755Z,96301.78
2024-04-08T12:53:03.631Z,96304.81
2024-04-08T12:55:32.999Z,96308.16
2024-04-08T12:58:01.651Z,96305.53
2024-04-08T13:00:33.650Z,96300.84
2024-04-08T13:03:00.532Z,96308.16
2024-04-08T13:05:29.977Z,96306.28
2024-04-08T13:07:57.073Z,96293.75
2024-04-08T13:10:26.497Z,96288.75
2024-04-08T13:12:53.308Z,96283.59
2024-04-08T13:15:22.791Z,96277.72
2024-04-08T13:17:52.339Z,96286.88
2024-04-08T13:20:21.761Z,96299.78
2024-04-08T13:22:48.533Z,96305.13
2024-04-08T13:25:20.652Z,96301.50
2024-04-08T13:27:47.415Z,96290.91
2024-04-08T13:30:17.655Z,96280.63
2024-04-08T13:32:44.719Z,96278.84
2024-04-08T13:35:16.808Z,96278.47
2024-04-08T13:37:43.616Z,96268.34
2024-04-08T13:40:14.776Z,96255.31
2024-04-08T13:42:42.432Z,96245.09
2024-04-08T13:45:11.879Z,96245.63
2024-04-08T13:47:38.865Z,96241.31
2024-04-08T13:50:09.302Z,96244.16
2024-04-08T13:52:38.672Z,96252.09
2024-04-08T13:55:08.163Z,96240.44
2024-04-08T13:57:37.365Z,96238.25
2024-04-08T14:00:07.437Z,96246.13
2024-04-08T14:02:34.410Z,96241.75
2024-04-08T14:05:04.536Z,96238.34
2024-04-08T14:07:31.268Z,96242.41
2024-04-08T14:10:03.396Z,96234.03
2024-04-08T14:12:31.190Z,96238.16
2024-04-08T14:15:00.912Z,96239.13
2024-04-08T14:17:28.307Z,96242.47
2024-04-08T14:19:57.838Z,96242.31
2024-04-08T14:22:24.600Z,96233.44
2024-04-08T14:24:54.047Z,96237.19
2024-04-08T14:27:23.587Z,96228.59
2024-04-08T14:30:00.199Z,96225.66
2024-04-08T14:32:27.853Z,96226.72
2024-04-08T14:34:57.306Z,96221.09
2024-04-08T14:37:42.578Z,96207.66
2024-04-08T14:40:14.229Z,96198.41
2024-04-08T14:42:43.852Z,96191.50
2024-04-08T14:45:14.592Z,96176.72
2024-04-08T14:47:41.567Z,96177.81
2024-04-08T14:50:11.140Z,96172.31
2024-04-08T14:52:41.627Z,96170.53
2024-04-08T14:55:16.586Z,96169.75
2024-04-08T14:57:46.317Z,96159.16
2024-04-08T15:00:17.569Z,96152.34
2024-04-08T15:02:48.853Z,96156.22
2024-04-08T15:05:16.349Z,96143.44
2024-04-08T15:07:45.801Z,96146.59
2024-04-08T15:10:15.365Z,96145.34
2024-04-08T15:12:43.922Z,96144.31
2024-04-08T15:15:17.314Z,96138.22
2024-04-08T15:17:45.963Z,96136.31
2024-04-08T15:20:15.578Z,96120.03
2024-04-08T15:22:42.335Z,96115.28
2024-04-08T15:25:11.784Z,96113.16
2024-04-08T15:27:38.671Z,96112.78
2024-04-08T15:30:09.208Z,96110.34
2024-04-08T15:32:40.561Z,96115.69
2024-04-08T15:35:12.626Z,96114.22
2024-04-08T15:37:40.903Z,96115.31
2024-04-08T15:40:11.230Z,96108.03
2024-04-08T15:42:37.964Z,96108.44
2024-04-08T15:45:08.542Z,96104.63
2024-04-08T15:47:38.329Z,96094.72
2024-04-08T15:50:08.900Z,96095.63
2024-04-08T15:52:35.788Z,96098.38
2024-04-08T15:55:05.239Z,96100.22
2024-04-08T15:57:32.068Z,96095.81
2024-04-08T16:00:01.571Z,96093.09
2024-04-08T16:02:28.765Z,96082.13
2024-04-08T16:05:02.527Z,96072.47
2024-04-08T16:07:29.482Z,96055.69
2024-04-08T16:10:00.924Z,96053.63
2024-04-08T16:12:29.725Z,96049.63
2024-04-08T16:15:00.430Z,96047.19
2024-04-08T16:17:27.303Z,96043.47
2024-04-08T16:19:56.763Z,96037.16
2024-04-08T16:22:29.263Z,96036.34
2024-04-08T16:25:00.635Z,96025.81
2024-04-08T16:27:28.441Z,96025.66
2024-04-08T16:29:58.049Z,96020.97
2024-04-08T16:32:26.558Z,96022.44
2024-04-08T16:34:56.805Z,96024.09
2024-04-08T16:37:26.209Z,96019.84
2024-04-08T16:39:55.573Z,96004.50
2024-04-08T16:42:22.476Z,96003.72
2024-04-08T16:44:52.146Z,95995.03
2024-04-08T16:47:18.994Z,95983.31
2024-04-08T16:49:48.577Z,95984.19
2024-04-08T16:52:16.650Z,95978.53
2024-04-08T16:54:48.886Z,95977.53
2024-04-08T16:57:16.026Z,95976.03
2024-04-08T16:59:45.751Z,95973.72
2024-04-08T17:02:12.833Z,95975.25
2024-04-08T17:04:42.627Z,95976.16
2024-04-08T17:07:09.557Z,95971.38
2024-04-08T17:09:39.158Z,95967.19
2024-04-08T17:12:09.263Z,95961.09
2024-04-08T17:14:38.608Z,95965.00
2024-04-08T17:17:05.455Z,95955.72
2024-04-08T17:19:34.804Z,95962.75
2024-04-08T17:22:03.044Z,95958.22
2024-04-08T17:24:32.453Z,95955.13
2024-04-08T17:26:59.386Z,95950.59
2024-04-08T17:29:31.380Z,95953.78
2024-04-08T17:31:58.107Z,95957.25
2024-04-08T17:34:28.141Z,95954.94
2024-04-08T17:36:55.005Z,95947.63
2024-04-08T17:39:24.560Z,95945.78
2024-04-08T17:41:52.709Z,95949.31
2024-04-08T17:44:23.278Z,95944.72
2024-04-08T17:46:52.708Z,95952.88
2024-04-08T17:49:22.356Z,95959.09
2024-04-08T17:51:49.386Z,95955.66
2024-04-08T17:54:19.543Z,95947.19
2024-04-08T17:56:46.384Z,95956.84
2024-04-08T17:59:15.781Z,95950.72
2024-04-08T18:01:42.739Z,95944.97
2024-04-08T18:04:14.985Z,95950.41
2024-04-08T18:06:42.078Z,95939.66
2024-04-08T18:09:11.650Z,95938.91
2024-04-08T18:11:42.697Z,95939.69
2024-04-08T18:14:17.425Z,95933.56
2024-04-08T18:16:45.035Z,95935.88
2024-04-08T18:19:17.055Z,95933.56
2024-04-08T18:21:44.918Z,95948.94
2024-04-08T18:24:16.534Z,95942.03
2024-04-08T18:26:45.222Z,95952.06
2024-04-08T18:29:14.585Z,95946.72
2024-04-08T18:31:41.325Z,95953.63
2024-04-08T18:34:10.809Z,95947.50
2024-04-08T18:36:41.826Z,95949.84
2024-04-08T18:39:12.384Z,95949.88
2024-04-08T18:41:39.316Z,95947.94
2024-04-08T18:44:08.833Z,95958.41
2024-04-08T18:46:35.560Z,95961.13
2024-04-08T18:49:05.001Z,95961.59
2024-04-08T18:51:31.948Z,95957.75
2024-04-08T18:54:05.012Z,95963.53
2024-04-08T18:56:31.889Z,95966.97
2024-04-08T18:59:04.060Z,95961.63
2024-04-08T19:01:31.143Z,95966.19
2024-04-08T19:04:00.704Z,95962.34
2024-04-08T19:06:27.814Z,95961.97
2024-04-08T19:08:58.829Z,95970.41
2024-04-08T19:11:34.732Z,95964.28
2024-04-08T19:14:10.913Z,95967.00
2024-04-08T19:16:37.720Z,95960.47
2024-04-08T19:19:08.908Z,95965.06
2024-04-08T19:21:35.863Z,95962.38
2024-04-08T19:24:05.562Z,95968.53
2024-04-08T19:26:34.965Z,95961.22
2024-04-08T19:29:05.444Z,95963.50
2024-04-08T19:31:32.179Z,95965.31
2024-04-08T19:34:01.576Z,95971.38
2024-04-08T19:36:29.425Z,95966.72
2024-04-08T19:38:58.884Z,95968.22
2024-04-08T19:41:25.622Z,95970.44
2024-04-08T19:43:57.590Z,95971.78
2024-04-08T19:46:25.648Z,95969.41
2024-04-08T19:48:55.991Z,95971.31
2024-04-08T19:51:25.879Z,95974.69
2024-04-08T19:53:56.476Z,95973.34
2024-04-08T19:56:26.006Z,95980.41
2024-04-08T19:58:58.695Z,95988.84
2024-04-08T20:01:25.541Z,95978.19
2024-04-08T20:03:56.125Z,95975.06
2024-04-08T20:06:23.134Z,95966.41
2024-04-08T20:08:53.797Z,95964.75
2024-04-08T20:11:22.139Z,95964.63
2024-04-08T20:13:51.668Z,95964.56
2024-04-08T20:16:21.771Z,95967.19
2024-04-08T20:18:52.549Z,95964.66
2024-04-08T20:21:21.885Z,95970.78
2024-04-08T20:23:51.345Z,95971.25
2024-04-08T20:26:18.601Z,95976.78
2024-04-08T20:28:48.263Z,95983.75
2024-04-08T20:31:15.473Z,95973.47
2024-04-08T20:33:47.822Z,95958.59
2024-04-08T20:36:14.697Z,95949.41
2024-04-08T20:38:44.542Z,95933.28
2024-04-08T20:41:11.711Z,95925.69
2024-04-08T20:43:42.187Z,95931.06
2024-04-08T20:46:09.411Z,95931.84
2024-04-08T20:48:41.452Z,95934.13
2024-04-08T20:51:11.307Z,95939.22
2024-04-08T20:53:40.941Z,95946.28
2024-04-08T20:56:10.183Z,95958.13
2024-04-08T20:58:39.759Z,95938.38
2024-04-08T21:01:07.922Z,95938.81
2024-04-08T21:03:37.518Z,95941.66
2024-04-08T21:06:06.936Z,95932.69
2024-04-08T21:08:41.017Z,95922.06
2024-04-08T21:11:10.305Z,95919.44
2024-04-08T21:13:39.803Z,95912.56
2024-04-08T21:16:08.651Z,95910.72
2024-04-08T21:18:39.053Z,95908.84
2024-04-08T21:21:07.508Z,95900.44
2024-04-08T21:23:41.712Z,95895.06
2024-04-08T21:26:09.638Z,95893.00
2024-04-08T21:28:40.275Z,95883.19
2024-04-08T21:31:07.698Z,95879.53
2024-04-08T21:33:37.615Z,95880.25
2024-04-08T21:36:06.082Z,95881.19
2024-04-08T21:38:36.148Z,95875.41
2024-04-08T21:41:06.912Z,95869.88
2024-04-08T21:43:36.382Z,95856.81
2024-04-08T21:46:04.762Z,95843.97
2024-04-08T21:48:35.275Z,95853.72
2024-04-08T21:51:04.921Z,95861.91
2024-04-08T21:53:34.545Z,95872.19
2024-04-08T21:56:03.081Z,95868.69
2024-04-08T21:58:37.380Z,95856.31
2024-04-08T22:01:05.968Z,95856.03
2024-04-08T22:03:35.992Z,95848.81
2024-04-08T22:06:04.848Z,95852.47
2024-04-08T22:08:35.265Z,95835.03
2024-04-08T22:11:02.079Z,95827.28
2024-04-08T22:13:31.626Z,95834.28
2024-04-08T22:16:02.861Z,95837.25
2024-04-08T22:18:35.376Z,95843.34
2024-04-08T22:21:02.235Z,95846.63
2024-04-08T22:23:31.674Z,95840.06
2024-04-08T22:25:58.467Z,95843.75
2024-04-08T22:28:27.925Z,95847.66
2024-04-08T22:30:54.655Z,95850.69
2024-04-08T22:33:26.723Z,95849.44
2024-04-08T22:35:53.533Z,95844.16
2024-04-08T22:38:23.703Z,95844.22
2024-04-08T22:40:51.760Z,95845.78
2024-04-08T22:43:22.296Z,95854.38
2024-04-08T22:45:49.158Z,95848.69
2024-04-08T22:48:18.747Z,95852.47
2024-04-08T22:50:48.156Z,95854.50
2024-04-08T22:53:17.547Z,95847.25
2024-04-08T22:55:44.292Z,95845.97
2024-04-08T22:58:13.792Z,95846.16
2024-04-08T23:00:40.592Z,95837.19
2024-04-08T23:03:10.380Z,95853.97
2024-04-08T23:05:37.604Z,95833.19
2024-04-08T23:08:10.138Z,95847.41
2024-04-08T23:10:37.389Z,95838.53
2024-04-08T23:13:07.277Z,95839.09
2024-04-08T23:15:35.542Z,95851.31
2024-04-08T23:18:08.535Z,95845.88
2024-04-08T23:20:35.906Z,95853.41
2024-04-08T23:23:05.869Z,95850.75
2024-04-08T23:25:36.616Z,95847.03
2024-04-08T23:28:06.313Z,95843.31
2024-04-08T23:30:33.176Z,95845.66
2024-04-08T23:33:03.282Z,95844.16
2024-04-08T23:35:30.324Z,95839.28
2024-04-08T23:37:59.718Z,95831.94
2024-04-08T23:40:26.438Z,95828.56
2024-04-08T23:42:58.414Z,95824.63
2024-04-08T23:45:25.232Z,95813.22
2024-04-08T23:47:55.736Z,95814.75
2024-04-08T23:50:22.722Z,95816.34
2024-04-08T23:52:52.182Z,95822.00
2024-04-08T23:55:18.946Z,95819.50
2024-04-08T23:57:48.442Z,95830.22
